Time;durP1;ratioP1;P1;durP2;ratioP2;P2;SDS_P1;SDS_P2;PMS_P1;PMS_P2;Temp;Humidity;BMP_temperature;BMP_pressure;BME280_temperature;BME280_humidity;BME280_pressure;Samples;Min_cycle;Max_cycle;Signal;HPM_P1;HPM_P2
2024/04/18 00:00:00;;;;;;;8.80;4.85;;;;;;;5.85;71.75;96098.00;5210491;27;20467;-75
2024/04/18 00:02:30;;;;;;;7.63;5.97;;;;;;;5.88;72.21;96095.06;5210052;27;20004;-75
2024/04/18 00:04:56;;;;;;;7.72;5.50;;;;;;;5.91;72.35;96092.16;5210225;27;20344;-75
2024/04/18 00:07:28;;;;;;;8.60;5.70;;;;;;;5.93;72.73;96097.97;5210094;27;21010;-75
2024/04/18 00:09:55;;;;;;;9.55;6.65;;;;;;;5.92;71.93;96093.75;5229309;27;20018;-75
2024/04/18 00:12:24;;;;;;;7.00;5.53;;;;;;;5.91;72.22;96099.91;5229582;27;20008;-75
2024/04/18 00:14:51;;;;;;;6.72;5.95;;;;;;;5.92;72.70;96096.34;5219005;27;20539;-75
2024/04/18 00:17:20;;;;;;;7.72;6.07;;;;;;;5.92;72.82;96099.75;5210769;27;20018;-75
2024/04/18 00:19:47;;;;;;;6.82;5.53;;;;;;;5.93;72.03;96095.38;5210625;27;20008;-75
2024/04/18 00:22:16;;;;;;;8.40;5.63;;;;;;;5.92;72.13;96098.94;5210243;27;20004;-76
2024/04/18 00:24:46;;;;;;;7.75;5.93;;;;;;;5.93;71.97;96100.56;5209954;27;20019;-75
2024/04/18 00:27:15;;;;;;;10.45;5.35;;;;;;;5.91;71.82;96102.50;5213820;27;19996;-76
2024/04/18 00:29:43;;;;;;;7.35;5.90;;;;;;;5.89;71.51;96102.66;5231221;27;20019;-75
2024/04/18 00:32:12;;;;;;;6.25;5.57;;;;;;;5.90;71.96;96100.88;5230723;27;20007;-75
2024/04/18 00:34:39;;;;;;;8.00;5.32;;;;;;;5.91;71.90;96092.97;5230252;27;20003;-75
2024/04/18 00:37:09;;;;;;;5.05;4.30;;;;;;;5.93;71.59;96103.16;5212529;27;20004;-75
2024/04/18 00:39:35;;;;;;;7.45;4.60;;;;;;;5.92;71.95;96091.16;5210239;27;20471;-75
2024/04/18 00:42:07;;;;;;;6.47;3.90;;;;;;;5.91;71.95;96100.72;5210045;27;20050;-76
2024/04/18 00:44:34;;;;;;;6.10;4.43;;;;;;;5.93;71.71;96095.38;5211084;27;20007;-75
2024/04/18 00:47:04;;;;;;;5.25;3.90;;;;;;;5.90;71.24;96091.34;5212553;27;20015;-75
2024/04/18 00:49:31;;;;;;;5.90;4.22;;;;;;;5.90;71.15;96095.69;5212914;27;20007;-75
2024/04/18 00:52:00;;;;;;;6.65;4.40;;;;;;;5.88;70.96;96097.66;5221956;27;20518;-75
2024/04/18 00:54:27;;;;;;;6.43;4.53;;;;;;;5.87;71.46;96093.47;5234107;27;20004;-74
2024/04/18 00:56:56;;;;;;;3.85;3.38;;;;;;;5.87;71.22;96096.03;5233792;27;20015;-75
2024/04/18 00:59:26;;;;;;;6.03;4.03;;;;;;;5.86;70.63;96100.41;5232456;27;20000;-75
2024/04/18 01:01:55;;;;;;;13.60;4.53;;;;;;;5.84;70.55;96096.34;5233897;27;20003;-75
2024/04/18 01:04:22;;;;;;;5.10;4.55;;;;;;;5.81;70.41;96102.66;5233054;27;20019;-74
2024/04/18 01:06:52;;;;;;;5.68;4.20;;;;;;;5.76;70.42;96098.00;5232962;27;20032;-75
2024/04/18 01:09:19;;;;;;;5.78;4.18;;;;;;;5.73;70.69;96095.75;5215173;27;20015;-75
2024/04/18 01:11:49;;;;;;;6.43;4.43;;;;;;;5.73;71.00;96105.28;5212497;27;20079;-75
2024/04/18 01:14:15;;;;;;;7.35;5.32;;;;;;;5.72;70.94;96098.47;5212510;27;20008;-75
2024/04/18 01:16:47;;;;;;;8.73;5.47;;;;;;;5.72;72.24;96101.88;5212316;27;20015;-75
2024/04/18 01:19:17;;;;;;;8.97;6.00;;;;;;;5.73;72.30;96100.91;5212881;27;20019;-75
2024/04/18 01:21:47;;;;;;;9.48;6.07;;;;;;;5.74;72.01;96105.09;5212893;27;20231;-75
2024/04/18 01:24:14;;;;;;;9.18;5.88;;;;;;;5.79;72.12;96099.44;5212320;27;20004;-75
2024/04/18 01:26:46;;;;;;;8.20;6.85;;;;;;;5.83;72.64;96103.31;5212205;27;20008;-74
2024/04/18 01:29:13;;;;;;;10.60;6.93;;;;;;;5.89;72.60;96104.47;5213363;27;20004;-75
2024/04/18 01:31:42;;;;;;;8.93;6.57;;;;;;;5.94;72.72;96102.16;5212832;27;20235;-75
2024/04/18 01:34:09;;;;;;;9.18;7.20;;;;;;;5.99;73.53;96107.69;5212564;27;20019;-75
2024/04/18 01:36:39;;;;;;;10.30;6.80;;;;;;;6.02;72.88;96103.97;5212504;27;20008;-75
2024/04/18 01:39:06;;;;;;;8.82;6.68;;;;;;;6.04;73.09;96108.00;5212527;27;20010;-75
2024/04/18 01:41:35;;;;;;;8.32;6.93;;;;;;;6.07;72.84;96110.25;5212460;27;20007;-75
2024/04/18 01:44:06;;;;;;;8.35;7.32;;;;;;;6.08;73.61;96111.06;5212379;27;20004;-75
2024/04/18 01:46:35;;;;;;;9.52;7.18;;;;;;;6.10;73.18;96106.53;5211939;27;20007;-75
2024/04/18 01:49:02;;;;;;;9.30;6.95;;;;;;;6.12;72.92;96110.59;5212283;27;20008;-75
2024/04/18 01:51:32;;;;;;;10.88;7.40;;;;;;;6.14;72.85;96113.81;5212176;27;20004;-75
2024/04/18 01:53:58;;;;;;;9.18;7.75;;;;;;;6.16;72.96;96113.63;5212433;27;20083;-75
2024/04/18 01:56:28;;;;;;;9.23;7.07;;;;;;;6.16;72.59;96117.03;5210471;27;20014;-75
2024/04/18 01:58:54;;;;;;;8.77;6.97;;;;;;;6.17;73.35;96118.66;5212072;27;20014;-75
2024/04/18 02:01:29;;;;;;;9.20;7.63;;;;;;;6.20;73.11;96122.69;5211989;27;20032;-75
2024/04/18 02:03:56;;;;;;;8.63;7.40;;;;;;;6.17;72.86;96118.66;5212060;27;20344;-75
2024/04/18 02:06:25;;;;;;;9.48;7.03;;;;;;;6.17;72.93;96123.84;5211855;27;20015;-75
2024/04/18 02:08:52;;;;;;;7.45;6.60;;;;;;;6.15;72.46;96123.19;5212194;27;20023;-75
2024/04/18 02:11:22;;;;;;;8.80;7.20;;;;;;;6.10;71.95;96122.91;5211979;27;20019;-75
2024/04/18 02:13:48;;;;;;;9.23;7.18;;;;;;;6.08;71.78;96122.25;5211432;27;20015;-75
2024/04/18 02:16:18;;;;;;;8.38;7.47;;;;;;;6.07;71.80;96127.59;5211307;27;20014;-75
2024/04/18 02:18:47;;;;;;;8.00;6.82;;;;;;;6.04;72.14;96128.72;5211723;27;20019;-75
2024/04/18 02:21:16;;;;;;;7.53;6.72;;;;;;;6.04;72.12;96133.91;5211820;27;20032;-75
2024/04/18 02:23:43;;;;;;;9.50;7.75;;;;;;;6.03;72.59;96127.09;5211607;27;20020;-75
2024/04/18 02:26:12;;;;;;;8.73;7.30;;;;;;;6.04;72.66;96133.91;5211419;27;20004;-75
2024/04/18 02:28:39;;;;;;;8.55;7.07;;;;;;;6.02;72.42;96129.88;5211676;27;20004;-75
2024/04/18 02:31:08;;;;;;;9.63;7.60;;;;;;;6.03;72.79;96137.44;5211338;27;20019;-75
2024/04/18 02:33:35;;;;;;;10.50;8.50;;;;;;;6.05;72.91;96132.91;5211585;27;20019;-75
2024/04/18 02:36:08;;;;;;;9.88;7.82;;;;;;;6.07;73.53;96132.75;5211271;27;20004;-75
2024/04/18 02:38:34;;;;;;;8.80;7.80;;;;;;;6.08;72.86;96129.19;5211434;27;20464;-75
2024/04/18 02:41:06;;;;;;;8.85;7.50;;;;;;;6.07;72.87;96125.81;5211431;27;20004;-75
2024/04/18 02:43:32;;;;;;;11.70;8.15;;;;;;;6.09;73.62;96134.22;5211533;27;20003;-75
2024/04/18 02:46:02;;;;;;;9.93;7.05;;;;;;;6.11;73.88;96124.50;5210730;27;20019;-75
2024/04/18 02:48:28;;;;;;;7.53;6.07;;;;;;;6.10;73.58;96128.06;5211390;27;20011;-75
2024/04/18 02:50:58;;;;;;;8.85;6.90;;;;;;;6.08;73.32;96124.84;5211170;27;20008;-75
2024/04/18 02:53:27;;;;;;;8.10;6.95;;;;;;;6.05;73.42;96125.16;5211454;27;20019;-75
2024/04/18 02:55:57;;;;;;;8.95;6.32;;;;;;;6.06;73.49;96125.97;5212302;27;20007;-76
2024/04/18 02:58:23;;;;;;;8.40;6.90;;;;;;;6.06;73.48;96124.19;5212827;27;20008;-75
2024/04/18 03:00:53;;;;;;;8.07;6.38;;;;;;;6.04;73.36;96128.72;5212466;27;20004;-75
2024/04/18 03:03:19;;;;;;;8.40;6.45;;;;;;;6.03;72.83;96132.28;5211959;27;20026;-74
2024/04/18 03:05:49;;;;;;;7.63;5.90;;;;;;;6.02;72.95;96125.50;5211077;27;20004;-75
2024/04/18 03:08:15;;;;;;;7.18;5.93;;;;;;;6.02;73.07;96135.84;5211025;27;20004;-75
2024/04/18 03:10:52;;;;;;;7.40;6.40;;;;;;;6.03;73.56;96131.47;5211410;27;20004;-75
2024/04/18 03:13:19;;;;;;;7.20;5.88;;;;;;;6.05;72.82;96129.53;5211550;27;20015;-75
2024/04/18 03:15:48;;;;;;;8.00;6.13;;;;;;;6.04;73.25;96133.09;5209882;21;20479;-78
2024/04/18 03:18:15;;;;;;;8.40;6.30;;;;;;;6.04;73.23;96128.72;5178445;27;20019;-77
2024/04/18 03:20:53;;;;;;;8.15;6.45;;;;;;;6.02;72.95;96135.84;5178392;27;20012;-76
2024/04/18 03:23:20;;;;;;;8.05;7.22;;;;;;;6.01;72.53;96138.59;5178222;27;20479;-76
2024/04/18 03:25:52;;;;;;;8.63;7.53;;;;;;;5.99;73.32;96133.56;5177799;27;20008;-76
2024/04/18 03:28:19;;;;;;;7.95;6.97;;;;;;;6.00;73.66;96137.78;5178543;27;20392;-76
2024/04/18 03:30:48;;;;;;;10.35;7.57;;;;;;;6.01;73.11;96138.59;5179435;27;20008;-76
2024/04/18 03:33:15;;;;;;;9.48;8.30;;;;;;;6.01;73.21;96136.00;5178370;27;20088;-77
2024/04/18 03:35:45;;;;;;;9.80;7.55;;;;;;;6.00;73.37;96144.75;5177360;27;20036;-79
2024/04/18 03:38:14;;;;;;;8.32;7.47;;;;;;;5.99;73.43;96141.34;5178066;27;20004;-77
2024/04/18 03:40:43;;;;;;;9.50;7.72;;;;;;;6.02;74.04;96151.38;5177855;27;20507;-76
2024/04/18 03:43:16;;;;;;;11.52;8.65;;;;;;;6.02;73.84;96148.78;5177881;27;20008;-77
2024/04/18 03:45:45;;;;;;;13.10;8.50;;;;;;;6.00;72.84;96149.94;5177595;27;20001;-76
2024/04/18 03:48:15;;;;;;;9.68;8.68;;;;;;;5.97;73.13;96143.31;5178062;27;20057;-76
2024/04/18 03:50:44;;;;;;;9.80;8.68;;;;;;;5.93;73.02;96147.97;5177977;27;20057;-76
2024/04/18 03:53:11;;;;;;;11.07;8.88;;;;;;;5.94;73.38;96156.53;5177710;27;20008;-76
2024/04/18 03:55:40;;;;;;;11.43;9.77;;;;;;;5.96;74.26;96152.84;5177090;27;20500;-76
2024/04/18 03:58:07;;;;;;;10.30;9.20;;;;;;;5.99;73.86;96162.06;5177354;27;20004;-76
2024/04/18 04:00:39;;;;;;;12.05;8.60;;;;;;;5.98;74.01;96155.28;5177676;27;20008;-76
2024/04/18 04:03:08;;;;;;;11.23;9.50;;;;;;;6.01;73.51;96160.09;5177983;27;20020;-76
2024/04/18 04:05:38;;;;;;;10.63;9.00;;;;;;;6.03;73.66;96162.53;5177417;27;20018;-76
2024/04/18 04:08:05;;;;;;;10.55;8.50;;;;;;;6.02;73.35;96163.53;5178012;27;20378;-77
2024/04/18 04:10:35;;;;;;;12.48;9.57;;;;;;;6.01;73.54;96165.28;5177693;27;20008;-76
2024/04/18 04:13:01;;;;;;;12.73;9.15;;;;;;;6.01;73.56;96175.66;5177558;27;20005;-77
2024/04/18 04:15:31;;;;;;;12.77;8.82;;;;;;;6.02;73.18;96166.91;5176963;27;20004;-78
2024/04/18 04:18:00;;;;;;;11.20;9.02;;;;;;;6.03;74.21;96172.91;5177819;27;20108;-77
2024/04/18 04:20:30;;;;;;;9.15;8.20;;;;;;;6.02;73.80;96174.69;5180486;27;20005;-79
2024/04/18 04:22:56;;;;;;;11.57;8.73;;;;;;;6.01;73.64;96175.66;5180781;27;20008;-77
2024/04/18 04:25:26;;;;;;;12.13;8.15;;;;;;;5.99;73.19;96185.34;5179690;27;20013;-77
2024/04/18 04:27:52;;;;;;;10.02;8.73;;;;;;;5.95;73.10;96186.69;5180647;27;20004;-77
2024/04/18 04:30:22;;;;;;;11.82;8.48;;;;;;;5.96;73.20;96186.50;5180205;27;20056;-76
2024/04/18 04:32:48;;;;;;;9.38;8.05;;;;;;;5.97;73.06;96192.50;5181880;27;20016;-77
2024/04/18 04:35:20;;;;;;;10.85;8.10;;;;;;;5.95;74.27;96197.03;5182384;27;20016;-76
2024/04/18 04:37:47;;;;;;;9.02;8.05;;;;;;;5.94;73.36;96200.53;5180353;27;20004;-76
2024/04/18 04:40:16;;;;;;;10.07;8.23;;;;;;;5.91;73.38;96195.69;5180384;27;20019;-77
2024/04/18 04:42:43;;;;;;;9.93;8.80;;;;;;;5.93;73.54;96204.13;5180229;27;20009;-77
2024/04/18 04:45:12;;;;;;;10.32;8.13;;;;;;;5.90;73.14;96209.59;5179964;27;20080;-77
2024/04/18 04:47:39;;;;;;;9.75;7.53;;;;;;;5.89;73.40;96208.00;5179917;27;20004;-76
2024/04/18 04:50:09;;;;;;;10.48;8.13;;;;;;;5.87;73.36;96215.91;5180446;27;20349;-77
2024/04/18 04:52:38;;;;;;;14.18;10.30;;;;;;;5.89;73.31;96220.94;5180089;27;20004;-77
2024/04/18 04:55:08;;;;;;;26.42;18.00;;;;;;;5.89;73.66;96218.34;5179920;27;20009;-77
2024/04/18 04:57:35;;;;;;;11.98;9.18;;;;;;;5.91;73.83;96221.59;5179893;27;20345;-77
2024/04/18 05:00:04;;;;;;;11.85;8.70;;;;;;;5.89;73.96;96226.13;5179669;27;20020;-77
2024/04/18 05:02:31;;;;;;;10.55;9.20;;;;;;;5.89;74.04;96231.28;5179798;27;20008;-77
2024/04/18 05:05:00;;;;;;;11.50;8.40;;;;;;;5.89;73.94;96228.72;5179986;27;20469;-77
2024/04/18 05:07:27;;;;;;;10.18;8.13;;;;;;;5.90;73.58;96232.91;5179575;27;20008;-77
2024/04/18 05:09:59;;;;;;;10.68;8.13;;;;;;;5.88;73.74;96237.44;5180116;27;20004;-77
2024/04/18 05:12:26;;;;;;;10.45;8.45;;;;;;;5.88;73.41;96242.59;5180382;27;20023;-77
2024/04/18 05:14:55;;;;;;;12.15;8.90;;;;;;;5.87;73.54;96246.19;5179622;27;20013;-78
2024/04/18 05:17:22;;;;;;;11.35;8.85;;;;;;;5.87;73.08;96246.19;5179326;27;20008;-77
2024/04/18 05:19:51;;;;;;;10.30;7.78;;;;;;;5.88;73.31;96240.00;5179759;27;20015;-77
2024/04/18 05:22:18;;;;;;;9.13;7.72;;;;;;;5.89;73.35;96249.41;5182987;27;20015;-77
2024/04/18 05:24:47;;;;;;;9.95;8.48;;;;;;;5.91;73.29;96250.88;5179800;27;20013;-77
2024/04/18 05:27:17;;;;;;;9.93;7.85;;;;;;;5.93;73.58;96248.94;5179570;27;20079;-77
2024/04/18 05:32:32;;;;;;;12.25;8.25;;;;;;;5.96;72.83;96260.78;5180778;27;20517;-78
2024/04/18 05:35:01;;;;;;;9.13;8.05;;;;;;;5.97;73.04;96267.59;5183679;27;20008;-77
2024/04/18 05:37:31;;;;;;;11.30;7.90;;;;;;;5.97;72.94;96268.38;5176269;27;20001;-77
2024/04/18 05:40:01;;;;;;;9.57;8.40;;;;;;;6.00;73.15;96267.25;5186808;27;20015;-78
2024/04/18 05:42:33;;;;;;;11.27;8.13;;;;;;;6.04;73.53;96271.13;5193711;27;20012;-77
2024/04/18 05:45:05;;;;;;;9.05;8.13;;;;;;;6.07;72.95;96270.81;5189948;27;20016;-77
2024/04/18 05:47:34;;;;;;;8.98;7.80;;;;;;;6.07;73.04;96275.97;5197064;27;20027;-77
2024/04/18 05:50:03;;;;;;;11.35;8.43;;;;;;;6.11;73.33;96279.88;5186530;27;20037;-77
2024/04/18 05:52:33;;;;;;;8.25;7.38;;;;;;;6.12;72.63;96281.50;5208050;27;20023;-77
2024/04/18 05:55:02;;;;;;;8.88;7.25;;;;;;;6.11;72.00;96285.06;5194229;27;20008;-77
2024/04/18 05:57:34;;;;;;;9.07;8.13;;;;;;;6.11;72.05;96287.63;5180175;27;20265;-77
2024/04/18 06:00:03;;;;;;;8.30;7.50;;;;;;;6.15;71.97;96294.13;5179817;27;20087;-77
2024/04/18 06:02:33;;;;;;;11.05;8.55;;;;;;;6.16;72.09;96293.13;5179149;27;20460;-77
2024/04/18 06:05:02;;;;;;;11.32;8.80;;;;;;;6.19;72.91;96298.00;5180692;27;20285;-78
2024/04/18 06:07:32;;;;;;;9.15;7.95;;;;;;;6.22;72.94;96298.66;5191986;27;20376;-78
2024/04/18 06:10:02;;;;;;;9.02;8.13;;;;;;;6.23;72.72;96295.09;5212475;27;20369;-79
2024/04/18 06:12:33;;;;;;;10.73;7.75;;;;;;;6.21;72.32;96300.44;5211826;27;20023;-78
2024/04/18 06:15:03;;;;;;;7.13;6.43;;;;;;;6.22;72.45;96309.03;5211992;27;20451;-77
2024/04/18 06:17:30;;;;;;;15.45;8.50;;;;;;;6.21;72.01;96304.78;5211321;27;20004;-77
2024/04/18 06:19:59;;;;;;;10.43;8.65;;;;;;;6.19;72.01;96305.78;5211441;27;20008;-77
2024/04/18 06:22:28;;;;;;;12.98;8.30;;;;;;;6.21;72.55;96308.22;5211655;27;20353;-77
2024/04/18 06:24:58;;;;;;;8.57;7.47;;;;;;;6.24;72.85;96314.84;5211621;27;20000;-77
2024/04/18 06:27:27;;;;;;;9.45;7.45;;;;;;;6.27;72.56;96319.69;5211168;27;20032;-77
2024/04/18 06:29:59;;;;;;;8.90;7.18;;;;;;;6.29;72.25;96317.75;5211495;27;20004;-76
2024/04/18 06:32:28;;;;;;;8.80;7.57;;;;;;;6.32;72.17;96322.59;5181140;27;20023;-77
2024/04/18 06:34:58;;;;;;;8.63;7.10;;;;;;;6.32;72.00;96327.78;5178510;27;20273;-77
2024/04/18 06:37:27;;;;;;;9.23;8.15;;;;;;;6.34;71.91;96318.06;5178711;27;20008;-77
2024/04/18 06:39:57;;;;;;;9.70;7.55;;;;;;;6.40;72.16;96330.38;5179532;27;20004;-77
2024/04/18 06:42:26;;;;;;;8.63;7.47;;;;;;;6.43;71.97;96335.25;5178269;27;20033;-76
2024/04/18 06:44:55;;;;;;;9.25;7.18;;;;;;;6.45;71.62;96330.72;5185026;27;20013;-78
2024/04/18 06:47:27;;;;;;;7.50;6.70;;;;;;;6.47;71.19;96339.16;5178923;27;20019;-77
2024/04/18 06:49:57;;;;;;;7.18;6.03;;;;;;;6.50;70.25;96346.59;5179067;27;20080;-77
2024/04/18 06:52:26;;;;;;;6.70;5.93;;;;;;;6.46;69.49;96345.28;5206155;27;20020;-77
2024/04/18 06:54:56;;;;;;;7.75;5.88;;;;;;;6.43;69.59;96349.97;5211787;27;20015;-77
2024/04/18 06:57:25;;;;;;;7.53;5.90;;;;;;;6.39;69.60;96354.69;5211259;27;20016;-77
2024/04/18 06:59:54;;;;;;;7.97;5.88;;;;;;;6.39;69.67;96357.28;5211489;27;20003;-77
2024/04/18 07:02:24;;;;;;;7.97;6.28;;;;;;;6.39;69.83;96360.66;5211257;27;20000;-77
2024/04/18 07:04:56;;;;;;;6.63;5.70;;;;;;;6.39;69.73;96360.66;5211375;27;20003;-77
2024/04/18 07:07:25;;;;;;;7.80;6.45;;;;;;;6.40;70.02;96366.66;5210642;27;20083;-76
2024/04/18 07:09:54;;;;;;;7.28;6.57;;;;;;;6.42;69.61;96364.72;5210939;27;20016;-76
2024/04/18 07:12:24;;;;;;;7.00;5.90;;;;;;;6.44;69.88;96360.19;5211411;27;20019;-77
2024/04/18 07:14:53;;;;;;;8.43;6.55;;;;;;;6.50;70.23;96366.50;5210916;27;20105;-77
2024/04/18 07:17:23;;;;;;;7.18;6.22;;;;;;;6.52;70.04;96360.19;5210569;27;20004;-77
2024/04/18 07:19:52;;;;;;;8.95;6.55;;;;;;;6.57;70.04;96367.47;5211026;27;20008;-77
2024/04/18 07:22:25;;;;;;;8.50;6.75;;;;;;;6.59;70.28;96373.31;5211441;27;20019;-77
2024/04/18 07:24:54;;;;;;;7.57;6.78;;;;;;;6.63;69.93;96369.44;5211196;27;20015;-77
2024/04/18 07:27:24;;;;;;;8.07;6.68;;;;;;;6.67;70.05;96375.06;5210669;27;20089;-77
2024/04/18 07:29:53;;;;;;;7.95;6.55;;;;;;;6.70;69.63;96383.34;5230422;27;20051;-77
2024/04/18 07:32:22;;;;;;;8.63;6.65;;;;;;;6.71;69.28;96377.22;5201864;27;20013;-77
2024/04/18 07:34:52;;;;;;;9.43;7.20;;;;;;;6.73;69.17;96377.03;5198291;27;20465;-77
2024/04/18 07:37:21;;;;;;;8.05;6.60;;;;;;;6.77;69.81;96386.91;5182265;27;20009;-77
2024/04/18 07:39:53;;;;;;;8.25;7.35;;;;;;;6.83;69.32;96385.44;5180043;27;20019;-77
2024/04/18 07:42:23;;;;;;;7.85;7.05;;;;;;;6.89;69.33;96389.19;5178396;27;20079;-77
2024/04/18 07:44:52;;;;;;;9.48;7.38;;;;;;;7.00;69.61;96389.66;5178386;27;20080;-77
2024/04/18 07:47:23;;;;;;;8.23;6.88;;;;;;;7.11;69.16;96391.09;5177204;27;20020;-77
2024/04/18 07:49:53;;;;;;;8.45;6.85;;;;;;;7.15;68.34;96397.56;5178204;27;20009;-77
2024/04/18 07:52:22;;;;;;;8.88;7.60;;;;;;;7.17;67.91;96392.19;5203668;27;20011;-77
2024/04/18 07:54:54;;;;;;;7.97;7.18;;;;;;;7.21;67.28;96396.91;5209518;27;20011;-77
2024/04/18 07:57:24;;;;;;;8.13;7.13;;;;;;;7.25;67.35;96406.94;5210179;27;20036;-77
2024/04/18 07:59:54;;;;;;;8.45;6.55;;;;;;;7.23;67.21;96407.09;5210284;27;20004;-77
2024/04/18 08:02:24;;;;;;;7.68;6.72;;;;;;;7.20;67.13;96415.22;5210299;27;20356;-77
2024/04/18 08:04:55;;;;;;;7.10;6.40;;;;;;;7.19;67.53;96418.78;5210088;27;20011;-78
2024/04/18 08:07:30;;;;;;;8.18;6.82;;;;;;;7.19;67.70;96424.81;5210060;27;20028;-78
2024/04/18 08:10:08;;;;;;;7.95;6.65;;;;;;;7.21;67.54;96412.47;5210211;27;20022;-77
2024/04/18 08:12:43;;;;;;;7.18;6.47;;;;;;;7.25;67.62;96425.91;5210401;27;20000;-77
2024/04/18 08:15:18;;;;;;;8.00;6.90;;;;;;;7.28;67.51;96433.38;5210445;27;20008;-77
2024/04/18 08:17:56;;;;;;;7.75;6.95;;;;;;;7.31;67.52;96433.03;5213301;27;20007;-77
2024/04/18 08:20:26;;;;;;;10.55;6.78;;;;;;;7.33;67.51;96438.88;5210490;27;20015;-78
2024/04/18 08:22:55;;;;;;;10.65;6.78;;;;;;;7.32;67.48;96442.44;5210792;27;20523;-78
2024/04/18 08:25:27;;;;;;;9.20;7.25;;;;;;;7.29;67.30;96447.97;5211051;27;20347;-78
2024/04/18 08:27:56;;;;;;;9.10;7.45;;;;;;;7.24;67.68;96450.25;5210380;27;20004;-77
2024/04/18 08:30:26;;;;;;;9.25;6.93;;;;;;;7.18;67.40;96450.91;5207016;27;20468;-77
2024/04/18 08:32:56;;;;;;;8.73;7.53;;;;;;;7.12;67.64;96454.16;5177309;27;20021;-77
2024/04/18 08:35:25;;;;;;;9.30;7.40;;;;;;;7.06;67.86;96453.00;5177024;27;20008;-77
2024/04/18 08:37:55;;;;;;;11.50;7.78;;;;;;;7.05;68.46;96463.56;5177117;27;20004;-77
2024/04/18 08:40:24;;;;;;;8.40;7.25;;;;;;;7.04;68.52;96460.16;5188553;27;20015;-77
2024/04/18 08:42:56;;;;;;;9.70;7.63;;;;;;;7.05;67.94;96466.97;5193512;27;20016;-77
2024/04/18 08:45:27;;;;;;;9.43;7.50;;;;;;;7.07;68.91;96464.22;5180849;27;20008;-77
2024/04/18 08:48:00;;;;;;;10.77;7.78;;;;;;;7.08;68.99;96461.44;5177405;27;20472;-77
2024/04/18 08:50:31;;;;;;;8.93;7.97;;;;;;;7.09;68.87;96468.25;5176873;27;20004;-77
2024/04/18 08:53:02;;;;;;;11.98;8.23;;;;;;;7.07;68.34;96464.22;5185992;27;20015;-77
2024/04/18 08:55:34;;;;;;;9.30;7.53;;;;;;;7.06;68.34;96465.16;5179544;27;20008;-77
2024/04/18 08:58:07;;;;;;;;;;;;;;;7.09;69.01;96472.63;5177482;27;20004;-76
2024/04/18 09:00:36;;;;;;;10.33;8.23;;;;;;;7.12;68.71;96469.72;5176917;27;20380;-77
2024/04/18 09:03:07;;;;;;;15.55;9.38;;;;;;;7.16;68.24;96471.00;5176802;27;20248;-76
2024/04/18 09:05:37;;;;;;;11.18;8.48;;;;;;;7.23;68.80;96472.78;5176877;27;20348;-77
2024/04/18 09:08:09;;;;;;;11.32;9.68;;;;;;;7.34;69.12;96476.81;5181411;27;20155;-77
2024/04/18 09:10:39;;;;;;;12.15;9.80;;;;;;;7.45;68.23;96477.47;5180264;27;20016;-77
2024/04/18 09:13:11;;;;;;;10.23;7.85;;;;;;;7.54;68.24;96479.88;5179971;27;20349;-77
2024/04/18 09:15:41;;;;;;;10.90;8.25;;;;;;;7.65;68.24;96476.09;5214977;22;20007;-75
2024/04/18 09:18:10;;;;;;;10.88;8.60;;;;;;;7.81;68.04;96476.06;5211747;27;20269;-75
2024/04/18 09:20:41;;;;;;;9.07;7.25;;;;;;;8.03;67.27;96484.94;5212369;27;20007;-75
2024/04/18 09:23:12;;;;;;;12.88;8.13;;;;;;;8.21;66.10;96484.69;5212010;27;20010;-75
2024/04/18 09:25:39;;;;;;;8.23;7.32;;;;;;;8.35;66.02;96483.16;5212047;27;20003;-75
2024/04/18 09:28:20;;;;;;;10.30;7.68;;;;;;;8.43;64.57;96485.72;5212860;27;20004;-75
2024/04/18 09:30:53;;;;;;;10.38;7.80;;;;;;;8.46;63.58;96481.97;5220576;27;20011;-75
2024/04/18 09:33:26;;;;;;;8.57;7.38;;;;;;;8.48;65.00;96482.63;5245176;27;20011;-75
2024/04/18 09:35:58;;;;;;;14.25;7.45;;;;;;;8.48;65.00;96481.81;5218592;27;20016;-75
2024/04/18 09:38:32;;;;;;;8.25;6.57;;;;;;;8.51;64.94;96484.09;5211913;27;20079;-75
2024/04/18 09:41:04;;;;;;;9.80;7.28;;;;;;;8.57;64.62;96485.97;5211937;27;20008;-76
2024/04/18 09:43:43;;;;;;;8.02;6.63;;;;;;;8.78;63.22;96485.38;5212393;27;20039;-75
2024/04/18 09:46:12;;;;;;;6.30;5.53;;;;;;;9.08;63.98;96484.50;5211339;27;20004;-75
2024/04/18 09:48:42;;;;;;;8.20;6.63;;;;;;;9.37;62.26;96480.34;5234701;27;20019;-76
2024/04/18 09:51:11;;;;;;;8.20;5.97;;;;;;;9.56;61.82;96486.03;5235793;27;20014;-75
2024/04/18 09:53:42;;;;;;;6.30;4.93;;;;;;;9.53;60.01;96487.19;5211586;27;20022;-75
2024/04/18 09:56:12;;;;;;;6.88;4.80;;;;;;;9.42;59.65;96495.44;5211895;27;20352;-75
2024/04/18 09:58:45;;;;;;;6.95;4.88;;;;;;;9.34;59.09;96498.13;5245258;27;20003;-75
2024/04/18 10:01:16;;;;;;;5.07;3.97;;;;;;;9.22;58.24;96502.94;5245509;27;20003;-76
2024/04/18 10:03:47;;;;;;;5.38;3.88;;;;;;;9.02;57.85;96500.81;5245265;27;20355;-75
2024/04/18 10:06:19;;;;;;;5.35;4.07;;;;;;;8.94;58.25;96500.84;5244901;27;20009;-76
2024/04/18 10:08:50;;;;;;;5.93;4.70;;;;;;;8.91;58.10;96503.81;5245711;27;20014;-74
2024/04/18 10:11:22;;;;;;;6.15;4.10;;;;;;;8.92;58.77;96505.44;5245480;27;20081;-74
2024/04/18 10:13:55;;;;;;;6.55;4.47;;;;;;;8.94;58.59;96506.06;5245932;27;20011;-76
2024/04/18 10:16:24;;;;;;;5.80;3.80;;;;;;;8.99;58.51;96505.56;5245422;27;20011;-75
2024/04/18 10:18:54;;;;;;;3.92;3.50;;;;;;;9.04;58.20;96509.25;5245406;27;20038;-75
2024/04/18 10:21:28;;;;;;;4.03;3.63;;;;;;;9.08;57.76;96504.50;5245800;27;20024;-76
2024/04/18 10:24:12;;;;;;;3.97;3.35;;;;;;;9.11;57.23;96500.75;5254839;27;20007;-76
2024/04/18 10:26:41;;;;;;;6.22;3.92;;;;;;;9.09;56.36;96503.50;5264355;27;20036;-75
2024/04/18 10:29:26;;;;;;;4.47;3.47;;;;;;;9.04;57.78;96504.03;5264898;27;19999;-75
2024/04/18 10:31:57;;;;;;;5.00;3.47;;;;;;;8.99;56.90;96505.56;5263122;27;20007;-75
2024/04/18 10:34:27;;;;;;;4.05;3.08;;;;;;;9.01;56.74;96501.00;5261460;27;19999;-76
2024/04/18 10:36:59;;;;;;;4.57;3.33;;;;;;;9.07;56.29;96506.31;5261058;27;20017;-76
2024/04/18 10:39:32;;;;;;;4.47;3.33;;;;;;;9.11;56.13;96509.34;5255166;27;20371;-76
2024/04/18 10:42:01;;;;;;;3.45;3.05;;;;;;;9.06;55.17;96517.69;5249084;27;20014;-76
2024/04/18 10:44:34;;;;;;;3.22;2.92;;;;;;;8.96;55.54;96516.28;5255678;27;20007;-75
2024/04/18 10:47:03;;;;;;;;;;;;;;;8.91;56.25;96513.41;5254909;27;20003;-76
2024/04/18 10:49:33;;;;;;;2.92;2.63;;;;;;;8.84;56.18;96519.31;5250160;27;19934;-75
2024/04/18 10:52:03;;;;;;;2.92;2.72;;;;;;;8.72;56.29;96519.88;5247259;27;20335;-75
2024/04/18 10:54:33;;;;;;;2.83;2.53;;;;;;;8.66;57.17;96522.19;5245228;27;20007;-75
2024/04/18 10:57:02;;;;;;;5.00;3.20;;;;;;;8.71;56.91;96521.66;5244165;27;20007;-75
2024/04/18 10:59:38;;;;;;;3.20;2.90;;;;;;;8.81;56.86;96524.88;5244156;27;20007;-75
2024/04/18 11:02:07;;;;;;;3.55;3.20;;;;;;;8.94;56.68;96519.06;5244151;27;20455;-75
2024/04/18 11:04:37;;;;;;;3.20;2.72;;;;;;;9.13;56.57;96520.41;5244199;27;20082;-75
2024/04/18 11:07:06;;;;;;;3.55;2.75;;;;;;;9.42;56.20;96522.28;5243823;27;20018;-76
2024/04/18 11:09:39;;;;;;;4.90;3.38;;;;;;;9.72;56.04;96522.31;5244178;27;20003;-75
2024/04/18 11:12:10;;;;;;;3.35;2.95;;;;;;;9.99;56.02;96523.53;5244067;27;20018;-76
2024/04/18 11:14:42;;;;;;;3.60;2.80;;;;;;;10.20;54.88;96514.97;5244215;27;20015;-75
2024/04/18 11:17:11;;;;;;;3.20;2.90;;;;;;;10.42;55.03;96521.09;5243814;27;20018;-75
2024/04/18 11:19:38;;;;;;;2.15;1.98;;;;;;;10.59;53.04;96526.91;5244138;27;20407;-75
2024/04/18 11:22:08;;;;;;;2.63;2.05;;;;;;;10.68;53.08;96525.78;5244140;27;20014;-75
2024/04/18 11:24:38;;;;;;;2.00;1.90;;;;;;;10.74;53.10;96533.91;5244015;27;20003;-75
2024/04/18 11:27:08;;;;;;;2.38;2.03;;;;;;;10.69;52.84;96535.25;5244284;27;20003;-75
2024/04/18 11:29:37;;;;;;;2.20;2.00;;;;;;;10.50;52.52;96530.63;5245095;27;20347;-75
2024/04/18 11:32:13;;;;;;;2.25;2.05;;;;;;;10.19;53.16;96531.63;5219562;27;20012;-75
2024/04/18 11:34:43;;;;;;;2.22;1.95;;;;;;;10.03;54.09;96540.41;5212818;27;20011;-75
2024/04/18 11:37:14;;;;;;;4.05;1.95;;;;;;;9.94;54.94;96541.47;5211407;27;20347;-75
2024/04/18 11:39:44;;;;;;;2.47;2.28;;;;;;;9.80;55.26;96535.28;5210897;27;20003;-75
2024/04/18 11:42:13;;;;;;;4.30;2.40;;;;;;;9.74;54.91;96536.00;5210808;27;20337;-75
2024/04/18 11:44:44;;;;;;;2.53;2.33;;;;;;;9.64;55.79;96535.44;5211065;27;20079;-75
2024/04/18 11:47:16;;;;;;;2.92;2.40;;;;;;;9.57;55.98;96540.53;5210694;27;20007;-75
2024/04/18 11:49:45;;;;;;;2.60;2.25;;;;;;;9.58;56.52;96538.75;5210977;27;20004;-75
2024/04/18 11:52:15;;;;;;;2.47;1.90;;;;;;;9.63;56.46;96544.25;5210733;27;20023;-75